sensor_id;sensor_type;location;lat;lon;timestamp;temperature;humidity
23637;DHT22;11995;50.842;4.456;2022-09-09T00:04:55;16.00;99.90
23637;DHT22;11995;50.842;4.456;2022-09-09T00:06:49;16.00;99.90
23637;DHT22;11995;50.842;4.456;2022-09-09T00:09:19;16.10;99.90
23637;DHT22;11995;50.842;4.456;2022-09-09T00:12:00;16.10;99.90
23637;DHT22;11995;50.842;4.456;2022-09-09T00:14:45;16.10;99.90
23637;DHT22;11995;50.842;4.456;2022-09-09T00:19:56;16.10;99.90
23637;DHT22;11995;50.842;4.456;2022-09-09T00:22:29;16.10;99.90
23637;DHT22;11995;50.842;4.456;2022-09-09T00:25:15;16.10;99.90
23637;DHT22;11995;50.842;4.456;2022-09-09T00:27:48;16.00;99.90
23637;DHT22;11995;50.842;4.456;2022-09-09T00:30:22;16.10;99.90
23637;DHT22;11995;50.842;4.456;2022-09-09T00:32:55;16.10;99.90
23637;DHT22;11995;50.842;4.456;2022-09-09T00:35:44;16.20;99.90
23637;DHT22;11995;50.842;4.456;2022-09-09T00:38:19;16.10;99.90
23637;DHT22;11995;50.842;4.456;2022-09-09T00:40:59;16.10;99.90
23637;DHT22;11995;50.842;4.456;2022-09-09T00:43:33;16.10;99.90
23637;DHT22;11995;50.842;4.456;2022-09-09T00:46:19;16.10;99.90
23637;DHT22;11995;50.842;4.456;2022-09-09T00:54:36;16.30;99.90
23637;DHT22;11995;50.842;4.456;2022-09-09T00:57:28;16.30;99.90
23637;DHT22;11995;50.842;4.456;2022-09-09T01:00:15;16.20;99.90
23637;DHT22;11995;50.842;4.456;2022-09-09T01:02:39;16.30;99.90
23637;DHT22;11995;50.842;4.456;2022-09-09T01:05:20;16.20;99.90
23637;DHT22;11995;50.842;4.456;2022-09-09T01:07:47;16.30;99.90
23637;DHT22;11995;50.842;4.456;2022-09-09T01:10:28;16.30;99.90
23637;DHT22;11995;50.842;4.456;2022-09-09T01:12:56;16.30;99.90
23637;DHT22;11995;50.842;4.456;2022-09-09T01:15:27;16.40;99.90
23637;DHT22;11995;50.842;4.456;2022-09-09T01:18:02;16.40;99.90
23637;DHT22;11995;50.842;4.456;2022-09-09T01:20:44;16.40;99.90
23637;DHT22;11995;50.842;4.456;2022-09-09T01:26:09;16.40;99.90
23637;DHT22;11995;50.842;4.456;2022-09-09T01:28:21;16.40;99.90
23637;DHT22;11995;50.842;4.456;2022-09-09T01:30:49;16.30;99.90
23637;DHT22;11995;50.842;4.456;2022-09-09T01:33:18;16.30;99.90
23637;DHT22;11995;50.842;4.456;2022-09-09T01:35:51;16.30;99.90
23637;DHT22;11995;50.842;4.456;2022-09-09T01:38:21;16.30;99.90
23637;DHT22;11995;50.842;4.456;2022-09-09T01:40:50;16.30;99.90
23637;DHT22;11995;50.842;4.456;2022-09-09T01:43:20;16.20;99.90
23637;DHT22;11995;50.842;4.456;2022-09-09T01:45:49;16.20;99.90
23637;DHT22;11995;50.842;4.456;2022-09-09T01:48:18;16.20;99.90
23637;DHT22;11995;50.842;4.456;2022-09-09T01:50:46;16.20;99.90
23637;DHT22;11995;50.842;4.456;2022-09-09T01:53:15;16.20;99.90
23637;DHT22;11995;50.842;4.456;2022-09-09T01:58:34;16.30;99.90
23637;DHT22;11995;50.842;4.456;2022-09-09T02:03:44;16.20;99.90
23637;DHT22;11995;50.842;4.456;2022-09-09T02:06:36;16.20;99.90
23637;DHT22;11995;50.842;4.456;2022-09-09T02:09:02;16.30;99.90
23637;DHT22;11995;50.842;4.456;2022-09-09T02:11:30;16.20;99.90
23637;DHT22;11995;50.842;4.456;2022-09-09T02:14:05;16.20;99.90
23637;DHT22;11995;50.842;4.456;2022-09-09T02:19:31;16.10;99.90
23637;DHT22;11995;50.842;4.456;2022-09-09T02:21:56;16.10;99.90
23637;DHT22;11995;50.842;4.456;2022-09-09T02:24:26;16.10;99.90
23637;DHT22;11995;50.842;4.456;2022-09-09T02:26:55;16.10;99.90
23637;DHT22;11995;50.842;4.456;2022-09-09T02:29:36;16.10;99.90
23637;DHT22;11995;50.842;4.456;2022-09-09T02:32:10;16.20;99.90
23637;DHT22;11995;50.842;4.456;2022-09-09T02:34:37;16.20;99.90
23637;DHT22;11995;50.842;4.456;2022-09-09T02:37:07;16.20;99.90
23637;DHT22;11995;50.842;4.456;2022-09-09T02:39:35;16.20;99.90
23637;DHT22;11995;50.842;4.456;2022-09-09T02:42:04;16.20;99.90
23637;DHT22;11995;50.842;4.456;2022-09-09T02:44:33;16.30;99.90
23637;DHT22;11995;50.842;4.456;2022-09-09T02:55:29;16.00;99.90
23637;DHT22;11995;50.842;4.456;2022-09-09T02:57:53;16.10;99.90
23637;DHT22;11995;50.842;4.456;2022-09-09T03:00:28;16.10;99.90
23637;DHT22;11995;50.842;4.456;2022-09-09T03:02:56;16.20;99.90
23637;DHT22;11995;50.842;4.456;2022-09-09T03:05:24;16.20;99.90
23637;DHT22;11995;50.842;4.456;2022-09-09T03:07:52;16.20;99.90
23637;DHT22;11995;50.842;4.456;2022-09-09T03:10:20;16.10;99.90
23637;DHT22;11995;50.842;4.456;2022-09-09T03:12:47;16.20;99.90
23637;DHT22;11995;50.842;4.456;2022-09-09T03:15:15;16.10;99.90
23637;DHT22;11995;50.842;4.456;2022-09-09T03:17:43;16.00;99.90
23637;DHT22;11995;50.842;4.456;2022-09-09T03:20:11;16.00;99.90
23637;DHT22;11995;50.842;4.456;2022-09-09T03:22:38;16.00;99.90
23637;DHT22;11995;50.842;4.456;2022-09-09T03:25:07;16.00;99.90
23637;DHT22;11995;50.842;4.456;2022-09-09T03:27:34;16.00;99.90
23637;DHT22;11995;50.842;4.456;2022-09-09T03:30:02;15.90;99.90
23637;DHT22;11995;50.842;4.456;2022-09-09T03:32:30;15.90;99.90
23637;DHT22;11995;50.842;4.456;2022-09-09T03:34:57;16.00;99.90
23637;DHT22;11995;50.842;4.456;2022-09-09T03:37:25;16.00;99.90
23637;DHT22;11995;50.842;4.456;2022-09-09T03:39:53;16.00;99.90
23637;DHT22;11995;50.842;4.456;2022-09-09T03:42:24;15.80;99.90
23637;DHT22;11995;50.842;4.456;2022-09-09T03:44:52;15.80;99.90
23637;DHT22;11995;50.842;4.456;2022-09-09T03:47:20;15.80;99.90
23637;DHT22;11995;50.842;4.456;2022-09-09T03:49:51;15.60;99.90
23637;DHT22;11995;50.842;4.456;2022-09-09T03:52:18;15.70;99.90
23637;DHT22;11995;50.842;4.456;2022-09-09T03:54:48;15.70;99.90
23637;DHT22;11995;50.842;4.456;2022-09-09T03:57:16;15.70;99.90
23637;DHT22;11995;50.842;4.456;2022-09-09T03:59:43;15.70;99.90
23637;DHT22;11995;50.842;4.456;2022-09-09T04:02:11;15.70;99.90
23637;DHT22;11995;50.842;4.456;2022-09-09T04:04:38;15.70;99.90
23637;DHT22;11995;50.842;4.456;2022-09-09T04:07:06;15.70;99.90
23637;DHT22;11995;50.842;4.456;2022-09-09T04:09:33;15.60;99.90
23637;DHT22;11995;50.842;4.456;2022-09-09T04:12:02;15.70;99.90
23637;DHT22;11995;50.842;4.456;2022-09-09T04:14:30;15.60;99.90
23637;DHT22;11995;50.842;4.456;2022-09-09T04:16:59;15.60;99.90
23637;DHT22;11995;50.842;4.456;2022-09-09T04:19:26;15.70;99.90
23637;DHT22;11995;50.842;4.456;2022-09-09T04:21:54;15.80;99.90
23637;DHT22;11995;50.842;4.456;2022-09-09T04:24:22;15.90;99.90
23637;DHT22;11995;50.842;4.456;2022-09-09T04:26:51;15.80;99.90
23637;DHT22;11995;50.842;4.456;2022-09-09T04:29:18;15.80;99.90
23637;DHT22;11995;50.842;4.456;2022-09-09T04:31:46;15.80;99.90
23637;DHT22;11995;50.842;4.456;2022-09-09T04:34:13;15.70;99.90
23637;DHT22;11995;50.842;4.456;2022-09-09T04:36:41;15.70;99.90
23637;DHT22;11995;50.842;4.456;2022-09-09T04:39:09;15.70;99.90
23637;DHT22;11995;50.842;4.456;2022-09-09T04:41:36;15.60;99.90
23637;DHT22;11995;50.842;4.456;2022-09-09T04:44:04;15.60;99.90
23637;DHT22;11995;50.842;4.456;2022-09-09T04:46:32;15.70;99.90
23637;DHT22;11995;50.842;4.456;2022-09-09T04:49:00;15.60;99.90
23637;DHT22;11995;50.842;4.456;2022-09-09T04:51:28;15.60;99.90
23637;DHT22;11995;50.842;4.456;2022-09-09T04:53:57;15.50;99.90
23637;DHT22;11995;50.842;4.456;2022-09-09T04:56:25;15.40;99.90
23637;DHT22;11995;50.842;4.456;2022-09-09T04:58:55;15.50;99.90
23637;DHT22;11995;50.842;4.456;2022-09-09T05:01:23;15.60;99.90
23637;DHT22;11995;50.842;4.456;2022-09-09T05:03:51;15.50;99.90
23637;DHT22;11995;50.842;4.456;2022-09-09T05:06:21;15.40;99.90
23637;DHT22;11995;50.842;4.456;2022-09-09T05:08:50;15.50;99.90
23637;DHT22;11995;50.842;4.456;2022-09-09T05:11:22;15.40;99.90
23637;DHT22;11995;50.842;4.456;2022-09-09T05:13:52;15.50;99.90
23637;DHT22;11995;50.842;4.456;2022-09-09T05:16:20;15.60;99.90
23637;DHT22;11995;50.842;4.456;2022-09-09T05:18:48;15.60;99.90
23637;DHT22;11995;50.842;4.456;2022-09-09T05:21:19;15.50;99.90
23637;DHT22;11995;50.842;4.456;2022-09-09T05:23:46;15.50;99.90
23637;DHT22;11995;50.842;4.456;2022-09-09T05:26:16;15.50;99.90
23637;DHT22;11995;50.842;4.456;2022-09-09T05:28:44;15.50;99.90
23637;DHT22;11995;50.842;4.456;2022-09-09T05:31:13;15.60;99.90
23637;DHT22;11995;50.842;4.456;2022-09-09T05:33:42;15.70;99.90
23637;DHT22;11995;50.842;4.456;2022-09-09T05:36:14;15.70;99.90
23637;DHT22;11995;50.842;4.456;2022-09-09T05:38:43;15.80;99.90
23637;DHT22;11995;50.842;4.456;2022-09-09T05:41:11;15.90;99.90
23637;DHT22;11995;50.842;4.456;2022-09-09T05:43:39;15.90;99.90
23637;DHT22;11995;50.842;4.456;2022-09-09T05:46:09;16.00;99.90
23637;DHT22;11995;50.842;4.456;2022-09-09T05:48:41;16.00;99.90
23637;DHT22;11995;50.842;4.456;2022-09-09T05:51:11;15.80;99.90
23637;DHT22;11995;50.842;4.456;2022-09-09T05:53:45;16.10;99.90
23637;DHT22;11995;50.842;4.456;2022-09-09T05:56:16;16.10;99.90
23637;DHT22;11995;50.842;4.456;2022-09-09T05:58:47;16.10;99.90
23637;DHT22;11995;50.842;4.456;2022-09-09T06:01:22;16.20;99.90
23637;DHT22;11995;50.842;4.456;2022-09-09T06:03:47;16.10;99.90
23637;DHT22;11995;50.842;4.456;2022-09-09T06:06:18;16.20;99.90
23637;DHT22;11995;50.842;4.456;2022-09-09T06:08:50;16.10;99.90
23637;DHT22;11995;50.842;4.456;2022-09-09T06:11:23;16.30;99.90
23637;DHT22;11995;50.842;4.456;2022-09-09T06:13:49;16.50;99.90
23637;DHT22;11995;50.842;4.456;2022-09-09T06:16:21;16.50;99.90
23637;DHT22;11995;50.842;4.456;2022-09-09T06:18:51;16.60;99.90
23637;DHT22;11995;50.842;4.456;2022-09-09T06:21:19;16.50;99.90
23637;DHT22;11995;50.842;4.456;2022-09-09T06:23:48;16.60;99.90
23637;DHT22;11995;50.842;4.456;2022-09-09T06:26:24;16.60;99.90
23637;DHT22;11995;50.842;4.456;2022-09-09T06:28:54;16.70;99.90
23637;DHT22;11995;50.842;4.456;2022-09-09T06:31:29;16.80;99.90
23637;DHT22;11995;50.842;4.456;2022-09-09T06:33:56;16.80;99.90
23637;DHT22;11995;50.842;4.456;2022-09-09T06:36:35;16.90;99.90
23637;DHT22;11995;50.842;4.456;2022-09-09T06:39:04;16.90;99.90
23637;DHT22;11995;50.842;4.456;2022-09-09T06:41:32;17.00;99.90
23637;DHT22;11995;50.842;4.456;2022-09-09T06:44:00;16.90;99.90
23637;DHT22;11995;50.842;4.456;2022-09-09T06:46:29;16.70;99.90
23637;DHT22;11995;50.842;4.456;2022-09-09T06:48:59;16.60;99.90
23637;DHT22;11995;50.842;4.456;2022-09-09T06:51:33;16.60;99.90
23637;DHT22;11995;50.842;4.456;2022-09-09T06:54:01;16.70;99.90
23637;DHT22;11995;50.842;4.456;2022-09-09T06:56:38;16.70;99.90
23637;DHT22;11995;50.842;4.456;2022-09-09T06:59:05;16.90;99.90
23637;DHT22;11995;50.842;4.456;2022-09-09T07:01:36;16.80;99.90
23637;DHT22;11995;50.842;4.456;2022-09-09T07:04:05;16.90;99.90
23637;DHT22;11995;50.842;4.456;2022-09-09T07:06:36;17.00;99.90
23637;DHT22;11995;50.842;4.456;2022-09-09T07:09:09;16.90;99.90
23637;DHT22;11995;50.842;4.456;2022-09-09T07:11:45;16.90;99.90
23637;DHT22;11995;50.842;4.456;2022-09-09T07:14:13;17.00;99.90
23637;DHT22;11995;50.842;4.456;2022-09-09T07:16:44;17.00;99.90
23637;DHT22;11995;50.842;4.456;2022-09-09T07:19:13;17.00;99.90
23637;DHT22;11995;50.842;4.456;2022-09-09T07:21:41;17.10;99.90
23637;DHT22;11995;50.842;4.456;2022-09-09T07:24:09;17.20;99.90
23637;DHT22;11995;50.842;4.456;2022-09-09T07:26:38;17.10;99.90
23637;DHT22;11995;50.842;4.456;2022-09-09T07:29:07;17.00;99.90
23637;DHT22;11995;50.842;4.456;2022-09-09T07:31:37;17.10;99.90
23637;DHT22;11995;50.842;4.456;2022-09-09T07:34:06;16.90;99.90
23637;DHT22;11995;50.842;4.456;2022-09-09T07:36:36;17.00;99.90
23637;DHT22;11995;50.842;4.456;2022-09-09T07:39:10;17.20;99.90
23637;DHT22;11995;50.842;4.456;2022-09-09T07:41:42;17.10;99.90
23637;DHT22;11995;50.842;4.456;2022-09-09T07:44:12;17.10;99.90
23637;DHT22;11995;50.842;4.456;2022-09-09T07:46:40;17.10;99.90
23637;DHT22;11995;50.842;4.456;2022-09-09T07:49:09;17.00;99.90
23637;DHT22;11995;50.842;4.456;2022-09-09T07:51:42;16.90;99.90
23637;DHT22;11995;50.842;4.456;2022-09-09T07:54:12;16.80;99.90
23637;DHT22;11995;50.842;4.456;2022-09-09T07:56:40;16.80;99.90
23637;DHT22;11995;50.842;4.456;2022-09-09T07:59:08;16.60;99.90
23637;DHT22;11995;50.842;4.456;2022-09-09T08:01:43;16.70;99.90
23637;DHT22;11995;50.842;4.456;2022-09-09T08:04:12;16.60;99.90
23637;DHT22;11995;50.842;4.456;2022-09-09T08:06:46;16.80;99.90
23637;DHT22;11995;50.842;4.456;2022-09-09T08:09:14;17.00;99.90
23637;DHT22;11995;50.842;4.456;2022-09-09T08:11:42;16.90;99.90
23637;DHT22;11995;50.842;4.456;2022-09-09T08:14:11;17.00;99.90
23637;DHT22;11995;50.842;4.456;2022-09-09T08:16:42;16.90;99.90
23637;DHT22;11995;50.842;4.456;2022-09-09T08:19:10;16.90;99.90
23637;DHT22;11995;50.842;4.456;2022-09-09T08:21:40;17.30;99.90
23637;DHT22;11995;50.842;4.456;2022-09-09T08:24:08;17.40;99.90
23637;DHT22;11995;50.842;4.456;2022-09-09T08:26:39;17.50;99.90
23637;DHT22;11995;50.842;4.456;2022-09-09T08:29:09;17.50;99.90
23637;DHT22;11995;50.842;4.456;2022-09-09T08:31:39;17.60;99.90
23637;DHT22;11995;50.842;4.456;2022-09-09T08:34:07;17.60;99.90
23637;DHT22;11995;50.842;4.456;2022-09-09T08:36:38;17.50;99.90
23637;DHT22;11995;50.842;4.456;2022-09-09T08:39:07;17.60;99.90
23637;DHT22;11995;50.842;4.456;2022-09-09T08:49:51;17.60;99.90
23637;DHT22;11995;50.842;4.456;2022-09-09T08:52:31;17.50;99.90
23637;DHT22;11995;50.842;4.456;2022-09-09T08:55:12;17.50;99.90
23637;DHT22;11995;50.842;4.456;2022-09-09T08:57:34;17.50;99.90
23637;DHT22;11995;50.842;4.456;2022-09-09T09:00:02;17.40;99.90
23637;DHT22;11995;50.842;4.456;2022-09-09T09:02:49;17.40;99.90
23637;DHT22;11995;50.842;4.456;2022-09-09T09:10:46;17.60;99.90
23637;DHT22;11995;50.842;4.456;2022-09-09T09:13:41;17.70;99.90
23637;DHT22;11995;50.842;4.456;2022-09-09T09:15:50;17.50;99.90
23637;DHT22;11995;50.842;4.456;2022-09-09T09:18:17;17.50;99.90
23637;DHT22;11995;50.842;4.456;2022-09-09T09:23:29;17.30;99.90
23637;DHT22;11995;50.842;4.456;2022-09-09T09:25:59;17.30;99.90
23637;DHT22;11995;50.842;4.456;2022-09-09T09:28:30;17.40;99.90
23637;DHT22;11995;50.842;4.456;2022-09-09T09:31:04;17.50;99.90
23637;DHT22;11995;50.842;4.456;2022-09-09T09:36:13;17.50;99.90
23637;DHT22;11995;50.842;4.456;2022-09-09T09:39:00;17.50;99.90
23637;DHT22;11995;50.842;4.456;2022-09-09T09:41:33;17.40;99.90
23637;DHT22;11995;50.842;4.456;2022-09-09T09:44:02;17.30;99.90
23637;DHT22;11995;50.842;4.456;2022-09-09T09:46:31;17.30;99.90
23637;DHT22;11995;50.842;4.456;2022-09-09T09:49:01;17.30;99.90
23637;DHT22;11995;50.842;4.456;2022-09-09T09:51:30;17.50;99.90
23637;DHT22;11995;50.842;4.456;2022-09-09T09:54:27;17.50;99.90
23637;DHT22;11995;50.842;4.456;2022-09-09T09:56:32;17.40;99.90
23637;DHT22;11995;50.842;4.456;2022-09-09T09:58:59;17.40;99.90
23637;DHT22;11995;50.842;4.456;2022-09-09T10:01:32;17.40;99.90
23637;DHT22;11995;50.842;4.456;2022-09-09T10:04:15;17.30;99.90
23637;DHT22;11995;50.842;4.456;2022-09-09T10:06:44;17.30;99.90
23637;DHT22;11995;50.842;4.456;2022-09-09T10:09:26;17.30;99.90
23637;DHT22;11995;50.842;4.456;2022-09-09T10:14:46;17.40;99.90
23637;DHT22;11995;50.842;4.456;2022-09-09T10:17:33;17.20;99.90
23637;DHT22;11995;50.842;4.456;2022-09-09T10:20:24;17.50;99.90
23637;DHT22;11995;50.842;4.456;2022-09-09T10:22:54;17.50;99.90
23637;DHT22;11995;50.842;4.456;2022-09-09T10:25:40;17.50;99.90
23637;DHT22;11995;50.842;4.456;2022-09-09T10:34:09;17.40;99.90
23637;DHT22;11995;50.842;4.456;2022-09-09T10:36:34;17.50;99.90
23637;DHT22;11995;50.842;4.456;2022-09-09T10:39:15;17.50;99.90
23637;DHT22;11995;50.842;4.456;2022-09-09T10:41:40;17.70;99.90
23637;DHT22;11995;50.842;4.456;2022-09-09T10:44:14;17.60;99.90
23637;DHT22;11995;50.842;4.456;2022-09-09T10:52:47;18.10;99.90
23637;DHT22;11995;50.842;4.456;2022-09-09T10:55:16;18.00;99.90
23637;DHT22;11995;50.842;4.456;2022-09-09T10:57:50;18.10;99.90
23637;DHT22;11995;50.842;4.456;2022-09-09T11:00:22;18.10;99.90
23637;DHT22;11995;50.842;4.456;2022-09-09T11:02:53;18.40;99.90
23637;DHT22;11995;50.842;4.456;2022-09-09T11:05:28;18.50;99.90
23637;DHT22;11995;50.842;4.456;2022-09-09T11:08:10;18.60;99.90
23637;DHT22;11995;50.842;4.456;2022-09-09T11:10:53;18.80;99.90
23637;DHT22;11995;50.842;4.456;2022-09-09T11:13:34;18.90;99.90
23637;DHT22;11995;50.842;4.456;2022-09-09T11:19:24;18.90;99.90
23637;DHT22;11995;50.842;4.456;2022-09-09T11:21:53;18.80;99.90
23637;DHT22;11995;50.842;4.456;2022-09-09T11:24:36;18.90;99.90
23637;DHT22;11995;50.842;4.456;2022-09-09T11:27:15;18.90;99.90
23637;DHT22;11995;50.842;4.456;2022-09-09T11:30:03;18.90;99.90
23637;DHT22;11995;50.842;4.456;2022-09-09T11:32:39;19.00;99.90
23637;DHT22;11995;50.842;4.456;2022-09-09T11:35:29;19.10;99.90
23637;DHT22;11995;50.842;4.456;2022-09-09T11:40:32;18.90;99.90
23637;DHT22;11995;50.842;4.456;2022-09-09T11:43:11;19.00;99.90
23637;DHT22;11995;50.842;4.456;2022-09-09T11:45:39;19.10;99.90
23637;DHT22;11995;50.842;4.456;2022-09-09T11:53:56;19.10;99.90
23637;DHT22;11995;50.842;4.456;2022-09-09T11:56:43;19.30;99.90
23637;DHT22;11995;50.842;4.456;2022-09-09T11:59:32;19.30;99.90
23637;DHT22;11995;50.842;4.456;2022-09-09T12:01:59;19.30;99.90
23637;DHT22;11995;50.842;4.456;2022-09-09T12:04:35;19.40;99.90
23637;DHT22;11995;50.842;4.456;2022-09-09T12:09:51;19.30;99.90
23637;DHT22;11995;50.842;4.456;2022-09-09T12:12:27;19.20;99.90
23637;DHT22;11995;50.842;4.456;2022-09-09T12:15:00;19.10;99.90
23637;DHT22;11995;50.842;4.456;2022-09-09T12:17:31;19.30;99.90
23637;DHT22;11995;50.842;4.456;2022-09-09T12:31:14;19.00;99.90
23637;DHT22;11995;50.842;4.456;2022-09-09T12:33:43;18.90;99.90
23637;DHT22;11995;50.842;4.456;2022-09-09T12:36:15;19.00;99.90
23637;DHT22;11995;50.842;4.456;2022-09-09T12:38:43;19.20;99.90
23637;DHT22;11995;50.842;4.456;2022-09-09T12:41:22;19.30;99.90
23637;DHT22;11995;50.842;4.456;2022-09-09T12:43:51;19.50;99.90
23637;DHT22;11995;50.842;4.456;2022-09-09T12:46:36;19.70;99.90
23637;DHT22;11995;50.842;4.456;2022-09-09T12:48:56;19.80;99.90
23637;DHT22;11995;50.842;4.456;2022-09-09T12:51:27;19.90;99.90
23637;DHT22;11995;50.842;4.456;2022-09-09T12:53:58;19.90;99.90
23637;DHT22;11995;50.842;4.456;2022-09-09T12:56:28;20.00;99.90
23637;DHT22;11995;50.842;4.456;2022-09-09T12:58:59;20.20;99.90
23637;DHT22;11995;50.842;4.456;2022-09-09T13:01:29;20.20;99.90
23637;DHT22;11995;50.842;4.456;2022-09-09T13:03:57;20.00;99.90
23637;DHT22;11995;50.842;4.456;2022-09-09T13:06:29;19.90;99.90
23637;DHT22;11995;50.842;4.456;2022-09-09T13:08:59;19.70;99.90
23637;DHT22;11995;50.842;4.456;2022-09-09T13:11:31;19.80;99.90
23637;DHT22;11995;50.842;4.456;2022-09-09T13:13:59;20.00;99.90
23637;DHT22;11995;50.842;4.456;2022-09-09T13:16:29;19.90;99.90
23637;DHT22;11995;50.842;4.456;2022-09-09T13:19:06;19.90;99.90
23637;DHT22;11995;50.842;4.456;2022-09-09T13:21:34;19.70;99.90
23637;DHT22;11995;50.842;4.456;2022-09-09T13:24:06;19.90;99.90
23637;DHT22;11995;50.842;4.456;2022-09-09T13:26:34;20.00;99.90
23637;DHT22;11995;50.842;4.456;2022-09-09T13:29:15;19.80;99.90
23637;DHT22;11995;50.842;4.456;2022-09-09T13:31:39;19.80;99.90
23637;DHT22;11995;50.842;4.456;2022-09-09T13:37:02;20.10;99.90
23637;DHT22;11995;50.842;4.456;2022-09-09T13:39:29;20.10;99.90
23637;DHT22;11995;50.842;4.456;2022-09-09T13:41:56;20.10;99.90
23637;DHT22;11995;50.842;4.456;2022-09-09T13:44:27;20.20;99.90
23637;DHT22;11995;50.842;4.456;2022-09-09T13:49:43;20.40;99.90
23637;DHT22;11995;50.842;4.456;2022-09-09T13:52:14;20.30;99.90
23637;DHT22;11995;50.842;4.456;2022-09-09T13:54:47;20.10;99.90
23637;DHT22;11995;50.842;4.456;2022-09-09T13:57:23;20.20;99.90
23637;DHT22;11995;50.842;4.456;2022-09-09T13:59:47;20.30;99.90
23637;DHT22;11995;50.842;4.456;2022-09-09T14:02:16;20.60;99.90
23637;DHT22;11995;50.842;4.456;2022-09-09T14:04:43;20.80;99.90
23637;DHT22;11995;50.842;4.456;2022-09-09T14:07:15;20.70;99.90
23637;DHT22;11995;50.842;4.456;2022-09-09T14:09:44;20.60;99.90
23637;DHT22;11995;50.842;4.456;2022-09-09T14:12:13;20.30;99.90
23637;DHT22;11995;50.842;4.456;2022-09-09T14:14:42;20.20;99.90
23637;DHT22;11995;50.842;4.456;2022-09-09T14:17:10;20.30;99.90
23637;DHT22;11995;50.842;4.456;2022-09-09T14:19:38;20.50;99.90
23637;DHT22;11995;50.842;4.456;2022-09-09T14:22:05;20.70;99.90
23637;DHT22;11995;50.842;4.456;2022-09-09T14:24:34;20.70;99.90
23637;DHT22;11995;50.842;4.456;2022-09-09T14:27:01;20.50;99.90
23637;DHT22;11995;50.842;4.456;2022-09-09T14:29:29;20.50;99.90
23637;DHT22;11995;50.842;4.456;2022-09-09T14:31:56;20.40;99.90
23637;DHT22;11995;50.842;4.456;2022-09-09T14:34:28;20.20;99.90
23637;DHT22;11995;50.842;4.456;2022-09-09T14:36:56;20.10;99.90
23637;DHT22;11995;50.842;4.456;2022-09-09T14:39:24;20.10;99.90
23637;DHT22;11995;50.842;4.456;2022-09-09T14:41:52;20.10;99.90
23637;DHT22;11995;50.842;4.456;2022-09-09T14:44:20;20.10;99.90
23637;DHT22;11995;50.842;4.456;2022-09-09T14:46:50;20.20;99.90
23637;DHT22;11995;50.842;4.456;2022-09-09T14:49:19;20.30;99.90
23637;DHT22;11995;50.842;4.456;2022-09-09T14:51:47;20.20;99.90
23637;DHT22;11995;50.842;4.456;2022-09-09T14:54:14;20.30;99.90
23637;DHT22;11995;50.842;4.456;2022-09-09T14:56:44;20.40;99.90
23637;DHT22;11995;50.842;4.456;2022-09-09T14:59:11;20.40;99.90
23637;DHT22;11995;50.842;4.456;2022-09-09T15:01:39;20.40;99.90
23637;DHT22;11995;50.842;4.456;2022-09-09T15:04:10;20.40;99.90
23637;DHT22;11995;50.842;4.456;2022-09-09T15:06:39;20.30;99.90
23637;DHT22;11995;50.842;4.456;2022-09-09T15:09:09;20.40;99.90
23637;DHT22;11995;50.842;4.456;2022-09-09T15:11:38;20.40;99.90
23637;DHT22;11995;50.842;4.456;2022-09-09T15:14:09;20.40;99.90
23637;DHT22;11995;50.842;4.456;2022-09-09T15:16:39;20.50;99.90
23637;DHT22;11995;50.842;4.456;2022-09-09T15:19:09;20.40;99.90
23637;DHT22;11995;50.842;4.456;2022-09-09T15:21:37;20.50;99.90
23637;DHT22;11995;50.842;4.456;2022-09-09T15:24:05;20.50;99.90
23637;DHT22;11995;50.842;4.456;2022-09-09T15:26:36;20.40;99.90
23637;DHT22;11995;50.842;4.456;2022-09-09T15:29:05;20.50;99.90
23637;DHT22;11995;50.842;4.456;2022-09-09T15:31:36;20.50;99.90
23637;DHT22;11995;50.842;4.456;2022-09-09T15:34:05;20.60;99.90
23637;DHT22;11995;50.842;4.456;2022-09-09T15:36:38;20.50;99.90
23637;DHT22;11995;50.842;4.456;2022-09-09T15:39:10;20.30;99.90
23637;DHT22;11995;50.842;4.456;2022-09-09T15:41:39;20.10;99.90
23637;DHT22;11995;50.842;4.456;2022-09-09T15:44:07;20.20;99.90
23637;DHT22;11995;50.842;4.456;2022-09-09T15:49:21;20.40;99.90
23637;DHT22;11995;50.842;4.456;2022-09-09T15:51:53;20.40;99.90
23637;DHT22;11995;50.842;4.456;2022-09-09T15:54:23;20.30;99.90
23637;DHT22;11995;50.842;4.456;2022-09-09T15:56:54;20.30;99.90
23637;DHT22;11995;50.842;4.456;2022-09-09T15:59:23;20.20;99.90
23637;DHT22;11995;50.842;4.456;2022-09-09T16:01:51;20.10;99.90
23637;DHT22;11995;50.842;4.456;2022-09-09T16:04:19;20.10;99.90
23637;DHT22;11995;50.842;4.456;2022-09-09T16:06:50;20.10;99.90
23637;DHT22;11995;50.842;4.456;2022-09-09T16:09:19;20.00;99.90
23637;DHT22;11995;50.842;4.456;2022-09-09T16:11:47;20.10;99.90
23637;DHT22;11995;50.842;4.456;2022-09-09T16:14:15;20.10;99.90
23637;DHT22;11995;50.842;4.456;2022-09-09T16:16:42;20.00;99.90
23637;DHT22;11995;50.842;4.456;2022-09-09T16:19:12;20.10;99.90
23637;DHT22;11995;50.842;4.456;2022-09-09T16:21:42;20.10;99.90
23637;DHT22;11995;50.842;4.456;2022-09-09T16:24:13;20.10;99.90
23637;DHT22;11995;50.842;4.456;2022-09-09T16:26:43;19.90;99.90
23637;DHT22;11995;50.842;4.456;2022-09-09T16:29:12;19.90;99.90
23637;DHT22;11995;50.842;4.456;2022-09-09T16:31:41;20.00;99.90
23637;DHT22;11995;50.842;4.456;2022-09-09T16:34:09;19.90;99.90
23637;DHT22;11995;50.842;4.456;2022-09-09T16:36:38;19.60;99.90
23637;DHT22;11995;50.842;4.456;2022-09-09T16:39:10;19.30;99.90
23637;DHT22;11995;50.842;4.456;2022-09-09T16:41:39;19.10;99.90
23637;DHT22;11995;50.842;4.456;2022-09-09T16:44:09;19.10;99.90
23637;DHT22;11995;50.842;4.456;2022-09-09T16:46:40;19.10;99.90
23637;DHT22;11995;50.842;4.456;2022-09-09T16:49:11;19.10;99.90
23637;DHT22;11995;50.842;4.456;2022-09-09T16:51:42;19.10;99.90
23637;DHT22;11995;50.842;4.456;2022-09-09T16:54:11;19.00;99.90
23637;DHT22;11995;50.842;4.456;2022-09-09T16:56:42;19.10;99.90
23637;DHT22;11995;50.842;4.456;2022-09-09T16:59:15;19.30;99.90
23637;DHT22;11995;50.842;4.456;2022-09-09T17:01:45;19.20;99.90
23637;DHT22;11995;50.842;4.456;2022-09-09T17:04:28;19.30;99.90
23637;DHT22;11995;50.842;4.456;2022-09-09T17:06:53;19.30;99.90
23637;DHT22;11995;50.842;4.456;2022-09-09T17:09:22;19.40;99.90
23637;DHT22;11995;50.842;4.456;2022-09-09T17:11:51;19.20;99.90
23637;DHT22;11995;50.842;4.456;2022-09-09T17:14:22;19.00;99.90
23637;DHT22;11995;50.842;4.456;2022-09-09T17:16:51;19.10;99.90
23637;DHT22;11995;50.842;4.456;2022-09-09T17:19:19;18.90;99.90
23637;DHT22;11995;50.842;4.456;2022-09-09T17:21:47;18.90;99.90
23637;DHT22;11995;50.842;4.456;2022-09-09T17:24:15;18.90;99.90
23637;DHT22;11995;50.842;4.456;2022-09-09T17:26:42;18.90;99.90
23637;DHT22;11995;50.842;4.456;2022-09-09T17:29:11;18.80;99.90
23637;DHT22;11995;50.842;4.456;2022-09-09T17:31:38;18.70;99.90